createdAt,value
2022-09-26T00:01:13.869Z,11.75
2022-09-26T00:03:43.416Z,11.74
2022-09-26T00:06:10.998Z,11.69
2022-09-26T00:08:39.355Z,11.67
2022-09-26T00:11:08.646Z,11.66
2022-09-26T00:13:38.359Z,11.63
2022-09-26T00:16:07.878Z,11.60
2022-09-26T00:18:35.290Z,11.55
2022-09-26T00:21:04.419Z,11.54
2022-09-26T00:23:32.344Z,11.49
2022-09-26T00:25:59.805Z,11.46
2022-09-26T00:28:27.490Z,11.41
2022-09-26T00:30:55.190Z,11.38
2022-09-26T00:33:24.242Z,11.36
2022-09-26T00:35:51.847Z,11.36
2022-09-26T00:38:19.597Z,11.35
2022-09-26T00:40:47.773Z,11.37
2022-09-26T00:43:29.758Z,11.38
2022-09-26T00:46:01.114Z,11.36
2022-09-26T00:48:31.691Z,11.34
2022-09-26T00:50:59.844Z,11.32
2022-09-26T00:53:32.891Z,11.31
2022-09-26T00:56:03.036Z,11.28
2022-09-26T00:58:34.056Z,11.27
2022-09-26T01:01:02.243Z,11.28
2022-09-26T01:03:32.006Z,11.28
2022-09-26T01:06:00.789Z,11.32
2022-09-26T01:08:33.129Z,11.28
2022-09-26T01:11:00.802Z,11.25
2022-09-26T01:13:28.741Z,11.21
2022-09-26T01:15:57.981Z,11.19
2022-09-26T01:18:27.576Z,11.15
2022-09-26T01:21:06.542Z,11.09
2022-09-26T01:24:13.018Z,11.08
2022-09-26T01:26:56.527Z,11.08
2022-09-26T01:29:43.744Z,11.05
2022-09-26T01:32:45.404Z,10.98
2022-09-26T01:35:22.682Z,10.98
2022-09-26T01:38:00.526Z,10.97
2022-09-26T01:40:34.671Z,10.97
2022-09-26T01:43:08.679Z,10.96
2022-09-26T01:45:44.073Z,10.95
2022-09-26T01:48:17.188Z,10.97
2022-09-26T01:50:50.838Z,10.97
2022-09-26T01:53:22.513Z,10.97
2022-09-26T01:55:57.775Z,10.98
2022-09-26T01:58:29.105Z,10.99
2022-09-26T02:01:01.649Z,10.99
2022-09-26T02:03:35.907Z,10.98
2022-09-26T02:06:08.069Z,10.98
2022-09-26T02:08:40.185Z,10.93
2022-09-26T02:11:12.806Z,10.92
2022-09-26T02:13:50.286Z,10.91
2022-09-26T02:16:22.862Z,10.91
2022-09-26T02:18:56.983Z,10.90
2022-09-26T02:21:24.958Z,10.88
2022-09-26T02:23:54.070Z,10.85
2022-09-26T02:26:23.473Z,10.81
2022-09-26T02:28:52.026Z,10.80
2022-09-26T02:31:24.591Z,10.77
2022-09-26T02:33:54.355Z,10.79
2022-09-26T02:36:25.233Z,10.81
2022-09-26T02:38:53.290Z,10.83
2022-09-26T02:41:47.735Z,10.82
2022-09-26T02:44:36.808Z,10.81
2022-09-26T02:47:30.208Z,10.81
2022-09-26T02:50:33.533Z,10.76
2022-09-26T02:53:12.547Z,10.73
2022-09-26T02:55:57.057Z,10.70
2022-09-26T02:58:36.241Z,10.57
2022-09-26T03:01:10.777Z,10.54
2022-09-26T03:03:43.265Z,10.53
2022-09-26T03:06:15.799Z,10.52
2022-09-26T03:08:46.225Z,10.53
2022-09-26T03:11:19.201Z,10.53
2022-09-26T03:13:47.823Z,10.51
2022-09-26T03:16:17.557Z,10.50
2022-09-26T03:18:51.905Z,10.48
2022-09-26T03:21:21.579Z,10.49
2022-09-26T03:23:49.444Z,10.46
2022-09-26T03:26:19.436Z,10.46
2022-09-26T03:28:54.793Z,10.46
2022-09-26T03:31:22.375Z,10.43
2022-09-26T03:33:55.813Z,10.38
2022-09-26T03:36:24.831Z,10.30
2022-09-26T03:38:51.992Z,10.26
2022-09-26T03:41:47.955Z,10.22
2022-09-26T03:44:29.064Z,10.22
2022-09-26T03:47:15.938Z,10.19
2022-09-26T03:49:45.378Z,10.15
2022-09-26T03:52:14.351Z,10.12
2022-09-26T03:54:43.306Z,10.10
2022-09-26T03:57:12.927Z,10.06
2022-09-26T03:59:46.430Z,10.07
2022-09-26T04:02:14.191Z,10.07
2022-09-26T04:04:45.413Z,10.05
2022-09-26T04:07:14.339Z,10.05
2022-09-26T04:09:41.441Z,10.07
2022-09-26T04:12:08.745Z,10.08
2022-09-26T04:14:39.641Z,10.10
2022-09-26T04:17:07.906Z,10.09
2022-09-26T04:19:40.414Z,10.08
2022-09-26T04:22:10.116Z,10.07
2022-09-26T04:24:39.422Z,10.09
2022-09-26T04:27:08.590Z,10.10
2022-09-26T04:29:36.568Z,10.11
2022-09-26T04:32:10.135Z,10.17
2022-09-26T04:35:06.975Z,10.22
2022-09-26T04:37:37.144Z,10.29
2022-09-26T04:40:09.493Z,10.35
2022-09-26T04:42:41.532Z,10.46
2022-09-26T04:45:09.872Z,10.55
2022-09-26T04:47:37.330Z,10.69
2022-09-26T04:50:27.415Z,10.82
2022-09-26T04:53:09.141Z,11.02
2022-09-26T04:55:56.168Z,11.16
2022-09-26T04:58:23.984Z,11.25
2022-09-26T05:00:52.473Z,11.35
2022-09-26T05:03:31.370Z,11.55
2022-09-26T05:05:59.414Z,11.68
2022-09-26T05:08:27.010Z,11.87
2022-09-26T05:10:56.867Z,11.92
2022-09-26T05:13:26.493Z,12.06
2022-09-26T05:15:55.525Z,12.20
2022-09-26T05:18:23.601Z,12.55
2022-09-26T05:20:51.137Z,12.77
2022-09-26T05:23:43.665Z,12.98
2022-09-26T05:26:19.724Z,13.18
2022-09-26T05:28:48.850Z,13.32
2022-09-26T05:31:17.029Z,13.45
2022-09-26T05:33:45.462Z,13.53
2022-09-26T05:36:12.695Z,13.45
2022-09-26T05:38:40.264Z,13.50
2022-09-26T05:41:07.708Z,13.65
2022-09-26T05:43:36.294Z,13.70
2022-09-26T05:46:09.044Z,13.86
2022-09-26T05:48:41.337Z,14.10
2022-09-26T05:51:18.212Z,14.28
2022-09-26T05:53:47.206Z,14.38
2022-09-26T05:56:19.726Z,14.44
2022-09-26T05:59:23.680Z,14.52
2022-09-26T06:02:10.769Z,14.59
2022-09-26T06:04:57.138Z,14.66
2022-09-26T06:07:47.306Z,14.71
2022-09-26T06:10:33.911Z,14.75
2022-09-26T06:13:02.372Z,14.91
2022-09-26T06:15:33.714Z,15.14
2022-09-26T06:18:04.545Z,15.31
2022-09-26T06:20:33.151Z,15.62
2022-09-26T06:23:01.137Z,15.94
2022-09-26T06:25:29.403Z,16.29
2022-09-26T06:28:00.431Z,16.72
2022-09-26T06:30:29.300Z,17.16
2022-09-26T06:33:05.201Z,17.60
2022-09-26T06:36:00.393Z,18.05
2022-09-26T06:38:33.041Z,18.44
2022-09-26T06:41:00.483Z,18.79
2022-09-26T06:43:28.054Z,19.12
2022-09-26T06:46:10.211Z,19.31
2022-09-26T06:48:59.741Z,19.52
2022-09-26T06:51:41.905Z,19.89
2022-09-26T06:54:10.258Z,20.24
2022-09-26T06:56:37.869Z,20.52
2022-09-26T06:59:05.241Z,20.83
2022-09-26T07:01:34.464Z,21.07
2022-09-26T07:04:32.234Z,21.43
2022-09-26T07:07:19.705Z,21.72
2022-09-26T07:09:46.946Z,21.97
2022-09-26T07:12:37.946Z,22.28
2022-09-26T07:15:06.144Z,22.57
2022-09-26T07:17:33.611Z,22.87
2022-09-26T07:20:34.603Z,23.25
2022-09-26T07:23:09.453Z,23.57
2022-09-26T07:25:39.509Z,23.73
2022-09-26T07:28:09.254Z,23.73
2022-09-26T07:30:43.556Z,23.79
2022-09-26T07:33:33.260Z,23.75
2022-09-26T07:36:07.181Z,23.91
2022-09-26T07:38:34.361Z,24.07
2022-09-26T07:41:03.159Z,24.23
2022-09-26T07:44:12.678Z,24.46
2022-09-26T07:46:43.332Z,24.67
2022-09-26T07:49:29.585Z,24.95
2022-09-26T07:52:29.235Z,25.35
2022-09-26T07:55:17.201Z,25.65
2022-09-26T07:57:59.581Z,25.78
2022-09-26T08:00:36.255Z,25.74
2022-09-26T08:05:43.992Z,25.36
2022-09-26T08:08:13.492Z,25.62
2022-09-26T08:11:12.653Z,25.79
2022-09-26T08:13:55.364Z,25.69
2022-09-26T08:16:41.768Z,25.55
2022-09-26T08:19:12.818Z,25.52
2022-09-26T08:21:39.944Z,25.40
2022-09-26T08:24:08.910Z,25.24
2022-09-26T08:27:00.510Z,25.20
2022-09-26T08:29:34.204Z,25.30
2022-09-26T08:32:04.089Z,25.38
2022-09-26T08:34:35.040Z,25.50
2022-09-26T08:37:29.510Z,25.69
2022-09-26T08:40:17.159Z,25.99
2022-09-26T08:43:11.321Z,26.28
2022-09-26T08:46:11.439Z,26.61
2022-09-26T08:48:55.350Z,26.85
2022-09-26T08:51:30.115Z,27.16
2022-09-26T08:54:09.218Z,27.54
2022-09-26T08:56:43.474Z,27.81
2022-09-26T08:59:18.069Z,28.17
2022-09-26T09:01:46.876Z,28.49
2022-09-26T09:04:23.380Z,28.68
2022-09-26T09:06:58.270Z,28.97
2022-09-26T09:09:25.442Z,29.16
2022-09-26T09:12:23.556Z,29.18
2022-09-26T09:15:25.565Z,28.99
2022-09-26T09:18:27.837Z,28.89
2022-09-26T09:21:23.522Z,29.12
2022-09-26T09:24:18.518Z,29.44
2022-09-26T09:30:15.835Z,29.59
2022-09-26T09:32:58.610Z,29.82
2022-09-26T09:35:42.657Z,29.81
2022-09-26T09:38:30.917Z,29.76
2022-09-26T09:41:09.557Z,29.83
2022-09-26T09:43:40.571Z,29.89
2022-09-26T09:46:16.847Z,29.67
2022-09-26T09:48:47.131Z,29.94
2022-09-26T09:51:39.155Z,30.02
2022-09-26T09:54:30.631Z,29.71
2022-09-26T09:57:33.190Z,29.61
2022-09-26T10:00:08.879Z,29.51
2022-09-26T10:03:01.998Z,29.70
2022-09-26T10:05:39.217Z,30.06
2022-09-26T10:08:11.796Z,30.43
2022-09-26T10:11:11.212Z,30.50
2022-09-26T10:14:03.250Z,30.48
2022-09-26T10:17:20.333Z,30.78
2022-09-26T10:20:01.655Z,31.08
2022-09-26T10:22:37.646Z,30.99
2022-09-26T10:25:15.728Z,31.14
2022-09-26T10:27:50.546Z,31.51
2022-09-26T10:30:26.846Z,31.87
2022-09-26T10:32:59.319Z,32.11
2022-09-26T10:35:44.148Z,31.93
2022-09-26T10:38:20.486Z,32.12
2022-09-26T10:40:55.206Z,32.24
2022-09-26T10:43:30.891Z,32.24
2022-09-26T10:46:10.585Z,32.33
2022-09-26T10:49:16.627Z,32.04
2022-09-26T10:52:29.486Z,31.74
2022-09-26T10:55:04.246Z,31.54
2022-09-26T10:57:35.417Z,31.47
2022-09-26T11:00:06.779Z,31.40
2022-09-26T11:02:36.211Z,31.43
2022-09-26T11:05:24.256Z,31.59
2022-09-26T11:08:10.631Z,31.73
2022-09-26T11:10:46.689Z,31.75
2022-09-26T11:13:40.173Z,31.81
2022-09-26T11:16:13.921Z,32.06
2022-09-26T11:18:51.974Z,31.99
2022-09-26T11:21:29.217Z,32.23
2022-09-26T11:24:11.784Z,32.36
2022-09-26T11:26:49.228Z,32.40
2022-09-26T11:29:23.920Z,32.43
2022-09-26T11:32:13.977Z,32.44
2022-09-26T11:35:03.163Z,32.44
2022-09-26T11:37:50.788Z,32.42
2022-09-26T11:40:41.104Z,32.46
2022-09-26T11:43:18.727Z,32.80
2022-09-26T11:46:04.476Z,32.88
2022-09-26T11:49:05.659Z,32.88
2022-09-26T11:52:10.418Z,32.88
2022-09-26T11:54:59.705Z,32.94
2022-09-26T11:57:38.377Z,33.02
2022-09-26T12:00:15.706Z,32.95
2022-09-26T12:02:57.397Z,32.87
2022-09-26T12:05:34.225Z,32.80
2022-09-26T12:08:13.772Z,32.65
2022-09-26T12:10:53.261Z,32.53
2022-09-26T12:13:34.361Z,32.42
2022-09-26T12:16:12.854Z,32.43
2022-09-26T12:18:49.889Z,32.64
2022-09-26T12:21:25.794Z,32.98
2022-09-26T12:23:54.834Z,33.02
2022-09-26T12:26:28.763Z,32.70
2022-09-26T12:29:23.504Z,32.38
2022-09-26T12:32:14.612Z,32.30
2022-09-26T12:35:07.237Z,32.21
2022-09-26T12:37:50.151Z,32.14
2022-09-26T12:40:31.839Z,32.16
2022-09-26T12:43:44.904Z,32.10
2022-09-26T12:46:40.049Z,32.19
2022-09-26T12:49:22.939Z,32.20
2022-09-26T12:51:55.309Z,32.13
2022-09-26T12:54:43.821Z,32.14
2022-09-26T12:57:24.444Z,32.26
2022-09-26T13:00:12.049Z,32.37
2022-09-26T13:03:11.905Z,32.27
2022-09-26T13:06:08.593Z,32.11
2022-09-26T13:08:48.242Z,32.11
2022-09-26T13:11:24.557Z,32.05
2022-09-26T13:14:27.221Z,31.92
2022-09-26T13:17:09.451Z,31.66
2022-09-26T13:19:41.926Z,31.52
2022-09-26T13:22:25.928Z,31.33
2022-09-26T13:24:58.758Z,31.19
2022-09-26T13:27:34.294Z,31.09
2022-09-26T13:30:05.779Z,30.99
2022-09-26T13:32:40.546Z,30.93
2022-09-26T13:35:16.923Z,30.74
2022-09-26T13:37:59.148Z,30.56
2022-09-26T13:40:36.715Z,30.50
2022-09-26T13:43:14.677Z,30.46
2022-09-26T13:45:55.259Z,30.46
2022-09-26T13:48:31.859Z,30.44
2022-09-26T13:51:08.237Z,30.40
2022-09-26T13:53:42.824Z,30.35
2022-09-26T13:56:44.205Z,30.36
2022-09-26T13:59:35.978Z,30.29
2022-09-26T14:02:23.446Z,30.23
2022-09-26T14:04:52.131Z,30.21
2022-09-26T14:07:41.212Z,30.27
2022-09-26T14:10:20.064Z,30.26
2022-09-26T14:12:55.547Z,30.20
2022-09-26T14:15:25.566Z,30.21
2022-09-26T14:18:07.638Z,30.25
2022-09-26T14:20:50.598Z,30.16
2022-09-26T14:23:40.130Z,30.10
2022-09-26T14:26:13.938Z,29.98
2022-09-26T14:28:50.066Z,29.94
2022-09-26T14:31:41.469Z,29.86
2022-09-26T14:34:18.602Z,29.81
2022-09-26T14:36:46.572Z,29.72
2022-09-26T14:39:44.921Z,29.54
2022-09-26T14:42:24.149Z,29.41
2022-09-26T14:44:57.503Z,29.31
2022-09-26T14:47:26.134Z,29.23
2022-09-26T14:50:03.299Z,29.19
2022-09-26T14:52:31.877Z,29.18
2022-09-26T14:55:02.307Z,29.12
2022-09-26T14:57:32.939Z,29.07
2022-09-26T15:00:01.806Z,29.16
2022-09-26T15:02:39.161Z,29.25
2022-09-26T15:05:19.246Z,29.23
2022-09-26T15:07:49.050Z,29.14
2022-09-26T15:10:23.569Z,29.01
2022-09-26T15:12:59.258Z,28.86
2022-09-26T15:15:35.469Z,28.73
2022-09-26T15:18:08.257Z,28.58
2022-09-26T15:20:40.213Z,28.39
2022-09-26T15:23:18.925Z,28.24
2022-09-26T15:25:46.845Z,28.07
2022-09-26T15:28:15.520Z,27.90
2022-09-26T15:30:43.009Z,27.78
2022-09-26T15:33:16.700Z,27.69
2022-09-26T15:35:52.754Z,27.60
2022-09-26T15:38:20.837Z,27.52
2022-09-26T15:41:01.359Z,27.43
2022-09-26T15:43:35.236Z,27.32
2022-09-26T15:46:08.861Z,27.13
2022-09-26T15:48:43.145Z,26.98
2022-09-26T15:51:17.069Z,26.87
2022-09-26T15:53:47.491Z,26.75
2022-09-26T15:56:18.701Z,26.61
2022-09-26T15:58:51.744Z,26.46
2022-09-26T16:01:21.502Z,26.31
2022-09-26T16:03:55.909Z,26.16
2022-09-26T16:06:27.575Z,26.05
2022-09-26T16:09:00.406Z,25.95
2022-09-26T16:11:28.402Z,25.89
2022-09-26T16:13:58.150Z,25.83
2022-09-26T16:16:31.695Z,25.73
2022-09-26T16:19:03.096Z,25.62
2022-09-26T16:21:33.770Z,25.51
2022-09-26T16:24:22.464Z,25.41
2022-09-26T16:26:51.811Z,25.30
2022-09-26T16:29:32.915Z,25.17
2022-09-26T16:32:01.306Z,25.07
2022-09-26T16:34:30.059Z,24.99
2022-09-26T16:36:58.317Z,24.86
2022-09-26T16:39:26.989Z,24.66
2022-09-26T16:42:02.629Z,24.53
2022-09-26T16:44:36.319Z,24.42
2022-09-26T16:47:06.251Z,24.30
2022-09-26T16:49:46.266Z,24.16
2022-09-26T16:52:22.776Z,23.96
2022-09-26T16:54:51.457Z,23.87
2022-09-26T16:57:21.479Z,23.79
2022-09-26T16:59:50.865Z,23.71
2022-09-26T17:02:18.417Z,23.52
2022-09-26T17:04:47.344Z,23.41
2022-09-26T17:07:15.887Z,23.31
2022-09-26T17:09:44.056Z,23.24
2022-09-26T17:12:18.236Z,23.17
2022-09-26T17:14:52.098Z,23.13
2022-09-26T17:17:25.799Z,23.07
2022-09-26T17:19:59.547Z,22.99
2022-09-26T17:22:28.098Z,22.89
2022-09-26T17:24:55.447Z,22.78
2022-09-26T17:27:27.032Z,22.67
2022-09-26T17:29:59.656Z,22.56
2022-09-26T17:32:29.556Z,22.44
2022-09-26T17:34:59.915Z,22.27
2022-09-26T17:37:27.706Z,22.12
2022-09-26T17:39:55.351Z,22.07
2022-09-26T17:42:23.146Z,22.00
2022-09-26T17:44:50.601Z,21.92
2022-09-26T17:47:19.739Z,21.80
2022-09-26T17:49:49.131Z,21.71
2022-09-26T17:52:27.344Z,21.62
2022-09-26T17:54:57.571Z,21.47
2022-09-26T17:57:30.101Z,21.35
2022-09-26T17:59:57.767Z,21.23
2022-09-26T18:02:31.564Z,21.09
2022-09-26T18:05:03.255Z,20.99
2022-09-26T18:07:36.750Z,20.94
2022-09-26T18:10:07.348Z,20.86
2022-09-26T18:12:35.216Z,20.84
2022-09-26T18:15:03.912Z,20.81
2022-09-26T18:17:32.796Z,20.79
2022-09-26T18:20:00.167Z,20.80
2022-09-26T18:22:31.150Z,20.78
2022-09-26T18:25:04.757Z,20.70
2022-09-26T18:27:36.837Z,20.68
2022-09-26T18:30:05.176Z,20.61
2022-09-26T18:32:39.039Z,20.55
2022-09-26T18:35:11.348Z,20.45
2022-09-26T18:37:38.782Z,20.34
2022-09-26T18:40:08.362Z,20.26
2022-09-26T18:42:35.632Z,20.19
2022-09-26T18:45:05.489Z,20.13
2022-09-26T18:47:38.930Z,20.03
2022-09-26T18:50:09.495Z,19.99
2022-09-26T18:52:36.846Z,19.89
2022-09-26T18:55:29.055Z,19.83
2022-09-26T18:58:14.863Z,19.79
2022-09-26T19:00:42.609Z,19.74
2022-09-26T19:03:11.320Z,19.70
2022-09-26T19:05:38.868Z,19.66
2022-09-26T19:08:06.345Z,19.60
2022-09-26T19:10:33.529Z,19.54
2022-09-26T19:13:00.806Z,19.53
2022-09-26T19:15:29.024Z,19.50
2022-09-26T19:17:56.597Z,19.47
2022-09-26T19:20:25.449Z,19.44
2022-09-26T19:22:55.563Z,19.38
2022-09-26T19:25:22.831Z,19.35
2022-09-26T19:27:53.262Z,19.28
2022-09-26T19:30:21.681Z,19.20
2022-09-26T19:32:51.265Z,19.11
2022-09-26T19:35:23.692Z,19.07
2022-09-26T19:37:52.753Z,19.02
2022-09-26T19:40:22.614Z,18.98
2022-09-26T19:42:50.073Z,18.96
2022-09-26T19:45:18.858Z,18.91
2022-09-26T19:47:48.050Z,18.87
2022-09-26T19:50:17.335Z,18.86
2022-09-26T19:52:44.659Z,18.82
2022-09-26T19:55:15.092Z,18.81
2022-09-26T19:57:42.609Z,18.77
2022-09-26T20:00:11.883Z,18.77
2022-09-26T20:02:39.329Z,18.77
2022-09-26T20:05:15.454Z,18.76
2022-09-26T20:07:42.926Z,18.77
2022-09-26T20:10:16.378Z,18.76
2022-09-26T20:12:44.035Z,18.74
2022-09-26T20:15:12.587Z,18.74
2022-09-26T20:17:41.687Z,18.74
2022-09-26T20:20:13.591Z,18.73
2022-09-26T20:22:42.481Z,18.72
2022-09-26T20:25:16.942Z,18.70
2022-09-26T20:27:44.453Z,18.69
2022-09-26T20:30:37.837Z,18.62
2022-09-26T20:33:06.183Z,18.59
2022-09-26T20:35:36.928Z,18.56
2022-09-26T20:38:08.083Z,18.55
2022-09-26T20:40:37.956Z,18.54
2022-09-26T20:43:10.337Z,18.55
2022-09-26T20:45:40.952Z,18.57
2022-09-26T20:48:12.524Z,18.57
2022-09-26T20:50:39.760Z,18.55
2022-09-26T20:53:16.153Z,18.54
2022-09-26T20:55:44.922Z,18.50
2022-09-26T20:58:12.350Z,18.46
2022-09-26T21:00:40.113Z,18.46
2022-09-26T21:03:07.452Z,18.47
2022-09-26T21:05:34.740Z,18.45
2022-09-26T21:08:06.952Z,18.43
2022-09-26T21:10:34.365Z,18.40
2022-09-26T21:13:02.929Z,18.40
2022-09-26T21:15:32.358Z,18.37
2022-09-26T21:18:01.072Z,18.32
2022-09-26T21:20:30.091Z,18.26
2022-09-26T21:23:17.386Z,18.28
2022-09-26T21:25:44.630Z,18.25
2022-09-26T21:28:21.610Z,18.21
2022-09-26T21:30:49.647Z,18.20
2022-09-26T21:33:17.645Z,18.22
2022-09-26T21:35:44.868Z,18.22
2022-09-26T21:38:12.230Z,18.26
2022-09-26T21:40:41.404Z,18.29
2022-09-26T21:43:14.292Z,18.30
2022-09-26T21:45:44.926Z,18.31
2022-09-26T21:48:12.882Z,18.32
2022-09-26T21:50:43.415Z,18.30
2022-09-26T21:53:15.903Z,18.26
2022-09-26T21:55:48.794Z,18.07
2022-09-26T21:58:19.579Z,17.88
2022-09-26T22:00:48.734Z,17.92
2022-09-26T22:03:15.991Z,17.99
2022-09-26T22:05:43.321Z,18.00
2022-09-26T22:08:10.613Z,18.00
2022-09-26T22:10:38.475Z,18.04
2022-09-26T22:13:05.875Z,18.07
2022-09-26T22:15:33.056Z,18.07
2022-09-26T22:18:01.965Z,18.06
2022-09-26T22:20:29.178Z,18.04
2022-09-26T22:22:56.483Z,18.01
2022-09-26T22:25:23.649Z,18.00
2022-09-26T22:27:51.214Z,18.01
2022-09-26T22:30:18.490Z,18.00
2022-09-26T22:32:45.681Z,17.99
2022-09-26T22:35:14.398Z,17.96
2022-09-26T22:37:41.600Z,17.94
2022-09-26T22:40:09.329Z,17.94
2022-09-26T22:42:36.561Z,17.95
2022-09-26T22:45:04.252Z,17.92
2022-09-26T22:47:31.474Z,17.91
2022-09-26T22:49:58.675Z,17.89
2022-09-26T22:52:27.237Z,17.86
2022-09-26T22:54:55.108Z,17.85
2022-09-26T22:57:22.333Z,17.83
2022-09-26T22:59:49.530Z,17.84
2022-09-26T23:02:16.740Z,17.82
2022-09-26T23:04:49.582Z,17.82
2022-09-26T23:07:19.263Z,17.80
2022-09-26T23:09:47.972Z,17.76
2022-09-26T23:12:15.430Z,17.74
2022-09-26T23:14:42.669Z,17.73
2022-09-26T23:17:09.965Z,17.74
2022-09-26T23:19:38.227Z,17.71
2022-09-26T23:22:05.506Z,17.73
2022-09-26T23:24:32.784Z,17.71
2022-09-26T23:27:01.379Z,17.69
2022-09-26T23:29:28.848Z,17.67
2022-09-26T23:31:56.065Z,17.67
2022-09-26T23:34:23.259Z,17.67
2022-09-26T23:36:50.511Z,17.69
2022-09-26T23:39:17.777Z,17.67
2022-09-26T23:41:45.160Z,17.66
2022-09-26T23:44:13.751Z,17.64
2022-09-26T23:46:41.088Z,17.65
2022-09-26T23:49:08.405Z,17.66
2022-09-26T23:51:36.090Z,17.66
2022-09-26T23:54:03.301Z,17.62
2022-09-26T23:56:30.506Z,17.62
2022-09-26T23:58:57.733Z,17.60
